This is the latest recevied weather packets stored in our database for station/object KG5WBN. If no packets are shown the sender has not sent any weather packets the latest 10 day(s).
| Time | Temp. | Humidity | Pressure | Rain* | Wind** | Luminosity | Snow |
|---|---|---|---|---|---|---|---|
| 1787856218 | 30° C | 52% | 1014.2 hPa | 0 mm | - | 251 W/m² | - |
| 1787855918 | 29.44° C | 52% | 1014.2 hPa | 0 mm | - | 302 W/m² | - |
| 1787855613 | 29.44° C | 52% | 1013.9 hPa | 0 mm | - | 200 W/m² | - |
| 1787855308 | 28.89° C | 53% | 1013.9 hPa | 0 mm | - | 176 W/m² | - |
| 1787855003 | 28.89° C | 53% | 1014.2 hPa | 0 mm | - | 168 W/m² | - |
| 1787854698 | 28.33° C | 53% | 1013.9 hPa | 0 mm | - | 155 W/m² | - |
| 1787854393 | 28.33° C | 53% | 1014.2 hPa | 0 mm | - | 140 W/m² | - |
| 1787854092 | 28.89° C | 54% | 1014.2 hPa | 0 mm | - | 140 W/m² | - |
| 1787853787 | 29.44° C | 53% | 1013.9 hPa | 0 mm | - | 156 W/m² | - |
| 1787853485 | 29.44° C | 53% | 1013.9 hPa | 0 mm | - | 175 W/m² | - |
| 1787853180 | 29.44° C | 54% | 1013.5 hPa | 0 mm | - | 204 W/m² | - |
| 1787852875 | 28.89° C | 63% | 1013.5 hPa | 0 mm | - | 228 W/m² | - |
| 1787852574 | 28.89° C | 67% | 1013.5 hPa | 0 mm | - | 254 W/m² | - |
| 1787852273 | 28.33° C | 75% | 1013.5 hPa | 0 mm | - | 315 W/m² | - |
| 1787851968 | 26.67° C | 89% | 1013.5 hPa | 0 mm | - | 381 W/m² | - |
| 1787851667 | 26.67° C | 99% | 1013.2 hPa | 0 mm | - | 298 W/m² | - |
| 1787851367 | 26.67° C | 99% | 1013.2 hPa | 0 mm | - | 266 W/m² | - |
| 1787851062 | 26.67° C | 99% | 1013.2 hPa | 0 mm | - | 348 W/m² | - |
| 1787850758 | 25.56° C | 99% | 1013.5 hPa | 0 mm | - | 276 W/m² | - |
| 1787850453 | 25.56° C | 99% | 1013.2 hPa | 0 mm | - | 178 W/m² | - |
| 1787850149 | 26.11° C | 99% | 1013.2 hPa | 0 mm | - | 223 W/m² | - |
| 1787849849 | 26.11° C | 99% | 1013.5 hPa | 0 mm | - | 311 W/m² | - |
| 1787849544 | 26.11° C | 99% | 1013.5 hPa | 0 mm | - | 211 W/m² | - |
| 1787849242 | 25.56° C | 99% | 1013.5 hPa | 0 mm | - | 169 W/m² | - |
| 1787848942 | 25.56° C | 99% | 1013.9 hPa | 0 mm | - | 164 W/m² | - |
* Rain latest hour (hover to see other rain measurements)
** Current wind speed in m/s (hover to see current wind gust speed)